In Rescue
 
Open Full Screen Window  High Contrast Mode
Wind Gusting 00 knots
08
March 19, 2019 7:02 PM EDT
Weather Information
Wind Direction
  190 °
Wind Speed
  08 kt (9 mph)
Wind Gust
  00 kt (0 mph)
Altimeter
30.31 in
Visibility
10 SM
Temperature
03° C
37° F
Dewpoint
00° C
32° F
Humidity
81%
1hr Rain Fall
00.00 in.
24hr Rain Fall
00.00 in.
Sky Condition
Scattered @ 6,500 ft
VFR

METAR KONZ 192302Z AUTO 19008KT 10SM SCT065 03/00 A3031 RMK AO2 T00310000

FAA Disclaimer: The data displayed is for advisory purposes only and is not to be used for flight planning or operations.